createdAt,value
2022-11-21T00:04:54.022Z,100648.88
2022-11-21T00:09:58.892Z,100648.66
2022-11-21T00:15:05.876Z,100654.50
2022-11-21T00:20:08.086Z,100647.22
2022-11-21T00:25:12.604Z,100644.34
2022-11-21T00:30:14.797Z,100646.16
2022-11-21T00:35:16.575Z,100637.41
2022-11-21T00:40:18.648Z,100627.13
2022-11-21T00:45:24.508Z,100636.94
2022-11-21T00:50:26.659Z,100619.97
2022-11-21T00:55:31.091Z,100615.38
2022-11-21T01:00:32.857Z,100621.00
2022-11-21T01:05:34.886Z,100613.09
2022-11-21T01:10:38.855Z,100606.38
2022-11-21T01:15:45.359Z,100607.81
2022-11-21T01:20:55.388Z,100613.63
2022-11-21T01:26:10.113Z,100617.78
2022-11-21T01:31:23.237Z,100614.56
2022-11-21T01:36:32.181Z,100614.66
2022-11-21T01:41:39.398Z,100608.31
2022-11-21T01:46:41.119Z,100606.81
2022-11-21T01:52:04.545Z,100606.19
2022-11-21T01:57:13.952Z,100604.03
2022-11-21T02:02:20.839Z,100589.59
2022-11-21T02:07:30.699Z,100601.72
2022-11-21T02:12:42.772Z,100602.03
2022-11-21T02:17:46.818Z,100592.22
2022-11-21T02:22:54.655Z,100598.94
2022-11-21T02:28:01.645Z,100605.69
2022-11-21T02:33:06.226Z,100611.16
2022-11-21T02:38:16.182Z,100610.19
2022-11-21T02:43:26.011Z,100607.06
2022-11-21T02:48:32.268Z,100606.44
2022-11-21T02:53:37.245Z,100606.66
2022-11-21T02:58:41.437Z,100613.56
2022-11-21T03:03:45.276Z,100615.03
2022-11-21T03:08:46.931Z,100614.94
2022-11-21T03:13:48.795Z,100610.44
2022-11-21T03:18:52.537Z,100612.81
2022-11-21T03:23:56.796Z,100606.41
2022-11-21T03:28:58.486Z,100610.41
2022-11-21T03:34:00.177Z,100605.91
2022-11-21T03:39:04.651Z,100598.03
2022-11-21T03:44:08.430Z,100599.06
2022-11-21T03:49:10.660Z,100595.84
2022-11-21T03:54:12.502Z,100596.16
2022-11-21T03:59:18.997Z,100595.84
2022-11-21T04:04:22.966Z,100595.78
2022-11-21T04:09:25.533Z,100594.63
2022-11-21T04:14:27.384Z,100587.19
2022-11-21T04:19:33.793Z,100592.03
2022-11-21T04:24:35.527Z,100596.00
2022-11-21T04:29:38.289Z,100582.38
2022-11-21T04:34:42.451Z,100586.13
2022-11-21T04:39:44.311Z,100582.91
2022-11-21T04:44:48.264Z,100591.91
2022-11-21T04:49:53.242Z,100578.00
2022-11-21T04:54:57.434Z,100571.16
2022-11-21T05:00:01.802Z,100574.81
2022-11-21T05:05:04.158Z,100559.31
2022-11-21T05:10:08.972Z,100556.91
2022-11-21T05:15:13.055Z,100545.72
2022-11-21T05:20:19.999Z,100552.72
2022-11-21T05:25:21.678Z,100557.75
2022-11-21T05:30:32.156Z,100555.16
2022-11-21T05:35:43.473Z,100542.25
2022-11-21T05:40:45.601Z,100545.91
2022-11-21T05:45:51.307Z,100541.81
2022-11-21T05:50:55.390Z,100538.47
2022-11-21T05:56:11.956Z,100538.47
2022-11-21T06:01:15.116Z,100526.00
2022-11-21T06:06:23.697Z,100517.84
2022-11-21T06:11:28.411Z,100517.09
2022-11-21T06:16:32.590Z,100513.50
2022-11-21T06:21:37.456Z,100512.25
2022-11-21T06:26:39.184Z,100512.16
2022-11-21T06:31:40.855Z,100509.41
2022-11-21T06:36:45.011Z,100516.34
2022-11-21T06:41:51.222Z,100511.94
2022-11-21T06:46:53.070Z,100526.19
2022-11-21T06:51:54.796Z,100528.19
2022-11-21T06:57:01.614Z,100539.44
2022-11-21T07:02:03.316Z,100532.91
2022-11-21T07:07:07.493Z,100535.84
2022-11-21T07:12:30.963Z,100532.19
2022-11-21T07:17:34.869Z,100532.59
2022-11-21T07:22:39.353Z,100528.50
2022-11-21T07:27:42.130Z,100521.03
2022-11-21T07:32:46.171Z,100532.66
2022-11-21T07:37:50.651Z,100530.16
2022-11-21T07:42:54.745Z,100521.09
2022-11-21T07:48:01.892Z,100533.91
2022-11-21T07:53:08.848Z,100537.00
2022-11-21T07:58:15.408Z,100524.75
2022-11-21T08:03:22.681Z,100530.59
2022-11-21T08:08:26.938Z,100524.78
2022-11-21T08:13:30.946Z,100528.53
2022-11-21T08:18:35.727Z,100521.88
2022-11-21T08:23:40.862Z,100518.09
2022-11-21T08:28:43.457Z,100507.66
2022-11-21T08:33:45.263Z,100515.78
2022-11-21T08:38:46.946Z,100511.78
2022-11-21T08:43:51.982Z,100509.28
2022-11-21T08:48:54.988Z,100503.91
2022-11-21T08:53:56.736Z,100503.31
2022-11-21T08:59:00.994Z,100504.13
2022-11-21T09:04:04.329Z,100510.22
2022-11-21T09:09:13.361Z,100502.66
2022-11-21T09:14:33.662Z,100498.34
2022-11-21T09:19:35.390Z,100486.75
2022-11-21T09:24:44.370Z,100491.66
2022-11-21T09:29:54.082Z,100499.88
2022-11-21T09:34:57.082Z,100480.97
2022-11-21T09:39:58.977Z,100484.56
2022-11-21T09:45:02.918Z,100476.31
2022-11-21T09:50:25.149Z,100490.25
2022-11-21T09:55:39.185Z,100489.88
2022-11-21T10:00:44.153Z,100486.81
2022-11-21T10:05:56.973Z,100492.56
2022-11-21T10:11:19.526Z,100481.00
2022-11-21T10:16:42.321Z,100480.63
2022-11-21T10:22:04.288Z,100477.78
2022-11-21T10:27:15.228Z,100472.69
2022-11-21T10:32:26.767Z,100466.59
2022-11-21T10:37:33.386Z,100459.56
2022-11-21T10:42:38.363Z,100444.19
2022-11-21T10:47:42.333Z,100450.44
2022-11-21T10:52:56.896Z,100432.16
2022-11-21T10:57:58.548Z,100429.25
2022-11-21T11:03:17.060Z,100409.25
2022-11-21T11:08:18.772Z,100411.50
2022-11-21T11:13:51.947Z,100396.78
2022-11-21T11:19:10.629Z,100380.63
2022-11-21T11:24:12.379Z,100368.47
2022-11-21T11:29:15.590Z,100357.41
2022-11-21T11:34:17.962Z,100338.88
2022-11-21T11:39:37.629Z,100323.16
2022-11-21T11:45:30.388Z,100324.47
2022-11-21T11:50:41.267Z,100324.69
2022-11-21T11:56:21.103Z,100319.28
2022-11-21T12:01:31.009Z,100318.06
2022-11-21T12:08:19.906Z,100307.78
2022-11-21T12:12:42.530Z,100308.66
2022-11-21T12:18:09.156Z,100295.94
2022-11-21T12:23:11.494Z,100294.53
2022-11-21T12:28:26.990Z,100291.59
2022-11-21T12:33:31.946Z,100291.44
2022-11-21T12:38:46.915Z,100286.09
2022-11-21T12:44:08.702Z,100285.13
2022-11-21T12:49:51.974Z,100272.34
2022-11-21T12:55:14.784Z,100270.91
2022-11-21T13:00:22.614Z,100268.09
2022-11-21T13:05:29.642Z,100255.28
2022-11-21T13:10:31.847Z,100248.38
2022-11-21T13:16:06.625Z,100248.41
2022-11-21T13:21:41.362Z,100243.38
2022-11-21T13:26:43.125Z,100241.53
2022-11-21T13:31:48.098Z,100228.16
2022-11-21T13:36:54.600Z,100231.97
2022-11-21T13:42:25.401Z,100222.75
2022-11-21T13:48:01.913Z,100222.78
2022-11-21T13:53:25.390Z,100218.09
2022-11-21T13:58:42.179Z,100201.78
2022-11-21T14:04:04.631Z,100202.97
2022-11-21T14:09:48.166Z,100189.03
2022-11-21T14:15:11.643Z,100186.53
2022-11-21T14:20:18.437Z,100180.91
2022-11-21T14:25:24.127Z,100173.69
2022-11-21T14:30:30.262Z,100174.84
2022-11-21T14:35:32.062Z,100165.13
2022-11-21T14:40:33.856Z,100156.38
2022-11-21T14:45:38.078Z,100145.91
2022-11-21T14:50:42.429Z,100155.31
2022-11-21T14:55:50.165Z,100149.63
2022-11-21T15:01:07.025Z,100141.56
2022-11-21T15:06:11.358Z,100144.53
2022-11-21T15:11:16.117Z,100132.06
2022-11-21T15:16:20.152Z,100132.25
2022-11-21T15:21:27.162Z,100112.66
2022-11-21T15:26:33.893Z,100106.25
2022-11-21T15:31:35.600Z,100098.03
2022-11-21T15:36:37.402Z,100075.63
2022-11-21T15:41:39.323Z,100072.91
2022-11-21T15:46:48.377Z,100067.34
2022-11-21T15:52:10.499Z,100059.63
2022-11-21T15:57:17.046Z,100056.09
2022-11-21T16:02:21.428Z,100063.78
2022-11-21T16:07:27.914Z,100059.78
2022-11-21T16:12:31.894Z,100070.97
2022-11-21T16:17:33.618Z,100082.94
2022-11-21T16:22:35.328Z,100085.72
2022-11-21T16:27:39.321Z,100079.84
2022-11-21T16:32:42.643Z,100079.16
2022-11-21T16:37:47.253Z,100077.81
2022-11-21T16:42:53.498Z,100068.69
2022-11-21T16:47:57.502Z,100061.22
2022-11-21T16:53:05.387Z,100055.53
2022-11-21T16:58:07.131Z,100050.56
2022-11-21T17:03:11.495Z,100046.75
2022-11-21T17:08:18.057Z,100042.94
2022-11-21T17:13:22.045Z,100041.75
2022-11-21T17:18:24.440Z,100031.91
2022-11-21T17:23:26.270Z,100040.53
2022-11-21T17:28:28.112Z,100019.03
2022-11-21T17:33:30.076Z,100001.56
2022-11-21T17:38:35.958Z,99992.94
2022-11-21T17:43:47.178Z,99977.53
2022-11-21T17:48:54.966Z,99974.00
2022-11-21T17:54:01.131Z,99972.38
2022-11-21T17:59:03.479Z,99962.03
2022-11-21T18:04:13.585Z,99948.66
2022-11-21T18:09:17.785Z,99941.50
2022-11-21T18:14:19.526Z,99927.72
2022-11-21T18:19:22.119Z,99926.28
2022-11-21T18:24:24.402Z,99912.59
2022-11-21T18:29:40.364Z,99910.13
2022-11-21T18:34:42.252Z,99903.38
2022-11-21T18:39:44.003Z,99898.41
2022-11-21T18:44:48.424Z,99891.06
2022-11-21T18:49:50.298Z,99883.19
2022-11-21T18:54:54.905Z,99879.75
2022-11-21T18:59:56.574Z,99895.66
2022-11-21T19:05:02.948Z,99897.91
2022-11-21T19:10:35.585Z,99900.38
2022-11-21T19:15:32.440Z,99896.53
2022-11-21T19:20:39.510Z,99890.00
2022-11-21T19:25:44.822Z,99885.03
2022-11-21T19:30:48.938Z,99883.22
2022-11-21T19:35:51.972Z,99893.63
2022-11-21T19:41:19.804Z,99902.06
2022-11-21T19:46:35.665Z,99903.72
2022-11-21T19:51:40.159Z,99902.31
2022-11-21T19:56:45.357Z,99900.09
2022-11-21T20:01:52.854Z,99888.34
2022-11-21T20:06:57.422Z,99887.78
2022-11-21T20:12:02.266Z,99876.00
2022-11-21T20:17:06.063Z,99873.38
2022-11-21T20:22:08.025Z,99861.34
2022-11-21T20:27:12.236Z,99858.16
2022-11-21T20:32:15.921Z,99858.72
2022-11-21T20:37:27.624Z,99868.69
2022-11-21T20:42:29.432Z,99862.72
2022-11-21T20:47:32.935Z,99848.34
2022-11-21T20:58:01.741Z,99826.72
2022-11-21T21:03:09.642Z,99829.78
2022-11-21T21:08:13.675Z,99823.81
2022-11-21T21:13:18.420Z,99821.19
2022-11-21T21:18:22.455Z,99823.94
2022-11-21T21:23:24.847Z,99823.81
2022-11-21T21:28:31.439Z,99822.69
2022-11-21T21:33:34.381Z,99823.56
2022-11-21T21:38:37.842Z,99815.66
2022-11-21T21:43:40.586Z,99816.31
2022-11-21T21:48:43.483Z,99813.56
2022-11-21T21:53:46.482Z,99801.38
2022-11-21T21:58:49.229Z,99801.53
2022-11-21T22:03:58.368Z,99806.66
2022-11-21T22:09:06.117Z,99790.31
2022-11-21T22:14:11.972Z,99780.22
2022-11-21T22:19:16.040Z,99768.44
2022-11-21T22:24:27.733Z,99757.66
2022-11-21T22:29:33.683Z,99755.88
2022-11-21T22:34:40.131Z,99757.91
2022-11-21T22:39:45.312Z,99743.38
2022-11-21T22:44:49.281Z,99733.94
2022-11-21T22:49:55.579Z,99725.78
2022-11-21T22:55:02.059Z,99733.25
2022-11-21T23:00:09.328Z,99731.28
2022-11-21T23:05:11.011Z,99727.53
2022-11-21T23:10:16.190Z,99728.22
2022-11-21T23:15:23.611Z,99723.78
2022-11-21T23:20:25.776Z,99718.22
2022-11-21T23:25:27.438Z,99711.00
2022-11-21T23:30:32.642Z,99708.25
2022-11-21T23:35:40.192Z,99698.41
2022-11-21T23:40:44.408Z,99705.59
2022-11-21T23:45:50.813Z,99700.97
2022-11-21T23:50:55.077Z,99699.72
2022-11-21T23:55:59.139Z,99685.28
